createdAt,value
2023-01-13T00:01:20.893Z,-3.25
2023-01-13T00:03:47.767Z,-3.43
2023-01-13T00:06:19.843Z,-2.79
2023-01-13T00:08:50.589Z,-2.76
2023-01-13T00:11:19.008Z,-2.79
2023-01-13T00:13:46.027Z,-2.99
2023-01-13T00:16:18.389Z,-3.01
2023-01-13T00:18:46.177Z,-3.31
2023-01-13T00:21:16.152Z,-2.83
2023-01-13T00:23:44.084Z,-3.13
2023-01-13T00:26:14.260Z,-2.58
2023-01-13T00:28:41.370Z,-2.95
2023-01-13T00:31:10.634Z,-3.02
2023-01-13T00:33:38.053Z,-3.24
2023-01-13T00:36:07.287Z,-2.92
2023-01-13T00:38:35.823Z,-2.89
2023-01-13T00:41:08.742Z,-3.07
2023-01-13T00:43:37.375Z,-3.23
2023-01-13T00:46:06.069Z,-2.46
2023-01-13T00:48:33.724Z,-3.65
2023-01-13T00:51:08.744Z,-2.81
2023-01-13T00:53:38.650Z,-3.22
2023-01-13T00:56:08.102Z,-2.48
2023-01-13T00:58:35.672Z,-2.84
2023-01-13T01:01:09.415Z,-2.59
2023-01-13T01:03:36.447Z,-2.91
2023-01-13T01:06:12.830Z,-2.72
2023-01-13T01:08:40.295Z,-2.87
2023-01-13T01:11:10.559Z,-2.44
2023-01-13T01:13:38.136Z,-2.76
2023-01-13T01:16:09.380Z,-2.53
2023-01-13T01:18:41.615Z,-2.75
2023-01-13T01:21:09.504Z,-2.35
2023-01-13T01:23:37.330Z,-2.65
2023-01-13T01:26:10.876Z,-2.40
2023-01-13T01:28:38.151Z,-2.66
2023-01-13T01:31:15.381Z,-2.55
2023-01-13T01:33:43.172Z,-2.40
2023-01-13T01:36:12.198Z,-2.37
2023-01-13T01:38:39.146Z,-2.32
2023-01-13T01:41:06.950Z,-2.31
2023-01-13T01:44:08.076Z,-2.27
2023-01-13T01:46:40.459Z,-2.34
2023-01-13T01:49:25.043Z,-2.61
2023-01-13T01:52:06.633Z,-2.23
2023-01-13T01:55:14.702Z,-2.20
2023-01-13T01:57:56.881Z,-2.18
2023-01-13T02:00:25.617Z,-2.73
2023-01-13T02:02:53.055Z,-2.93
2023-01-13T02:05:20.148Z,-2.25
2023-01-13T02:07:49.742Z,-2.53
2023-01-13T02:10:23.558Z,-2.49
2023-01-13T02:12:51.234Z,-2.09
2023-01-13T02:15:22.815Z,-2.78
2023-01-13T02:18:10.762Z,-2.14
2023-01-13T02:20:57.084Z,-2.54
2023-01-13T02:23:57.804Z,-2.10
2023-01-13T02:26:36.658Z,-2.05
2023-01-13T02:29:43.835Z,-2.33
2023-01-13T02:32:33.194Z,-2.00
2023-01-13T02:35:18.732Z,-1.94
2023-01-13T02:37:46.287Z,-2.32
2023-01-13T02:40:56.808Z,-1.89
2023-01-13T02:43:57.564Z,-2.49
2023-01-13T02:46:29.928Z,-1.97
2023-01-13T02:49:01.275Z,-2.02
2023-01-13T02:51:31.576Z,-2.21
2023-01-13T02:54:13.784Z,-1.77
2023-01-13T02:56:44.603Z,-1.82
2023-01-13T02:59:13.140Z,-1.68
2023-01-13T03:01:40.752Z,-2.25
2023-01-13T03:04:45.905Z,-2.10
2023-01-13T03:07:25.942Z,-1.85
2023-01-13T03:10:31.326Z,-1.89
2023-01-13T03:13:16.640Z,-1.70
2023-01-13T03:16:20.819Z,-1.69
2023-01-13T03:19:08.863Z,-1.71
2023-01-13T03:21:57.399Z,-1.73
2023-01-13T03:24:42.559Z,-1.71
2023-01-13T03:27:18.976Z,-1.71
2023-01-13T03:30:01.096Z,-1.68
2023-01-13T03:32:50.908Z,-2.20
2023-01-13T03:35:20.910Z,-1.62
2023-01-13T03:37:53.321Z,-1.69
2023-01-13T03:40:31.812Z,-1.68
2023-01-13T03:43:27.664Z,-2.21
2023-01-13T03:45:59.674Z,-1.97
2023-01-13T03:48:28.764Z,-2.22
2023-01-13T03:51:02.588Z,-1.94
2023-01-13T03:53:34.166Z,-1.90
2023-01-13T03:56:24.356Z,-1.67
2023-01-13T03:58:53.132Z,-2.01
2023-01-13T04:01:47.179Z,-1.58
2023-01-13T04:04:24.261Z,-2.02
2023-01-13T04:07:01.652Z,-1.50
2023-01-13T04:09:44.447Z,-1.89
2023-01-13T04:12:17.715Z,-2.14
2023-01-13T04:14:46.121Z,-1.78
2023-01-13T04:17:13.255Z,-1.49
2023-01-13T04:19:39.954Z,-1.71
2023-01-13T04:22:06.857Z,-1.45
2023-01-13T04:24:33.599Z,-1.68
2023-01-13T04:27:03.718Z,-1.37
2023-01-13T04:29:30.485Z,-1.46
2023-01-13T04:31:57.339Z,-1.54
2023-01-13T04:34:24.062Z,-1.74
2023-01-13T04:36:50.896Z,-2.25
2023-01-13T04:39:18.026Z,-1.25
2023-01-13T04:42:00.005Z,-1.47
2023-01-13T04:44:31.369Z,-1.15
2023-01-13T04:46:58.778Z,-1.16
2023-01-13T04:49:25.598Z,-1.49
2023-01-13T04:51:52.364Z,-1.84
2023-01-13T04:54:19.081Z,-1.39
2023-01-13T04:56:46.054Z,-1.46
2023-01-13T04:59:13.752Z,-1.43
2023-01-13T05:01:41.131Z,-1.60
2023-01-13T05:04:08.233Z,-1.32
2023-01-13T05:06:35.115Z,-1.54
2023-01-13T05:09:01.871Z,-1.83
2023-01-13T05:11:47.452Z,-1.46
2023-01-13T05:14:32.734Z,-1.95
2023-01-13T05:17:02.544Z,-1.57
2023-01-13T05:19:32.991Z,-1.74
2023-01-13T05:22:19.297Z,-1.24
2023-01-13T05:25:04.933Z,-1.28
2023-01-13T05:27:32.694Z,-1.15
2023-01-13T05:29:59.707Z,-1.62
2023-01-13T05:32:30.255Z,-1.59
2023-01-13T05:34:57.245Z,-1.44
2023-01-13T05:37:24.760Z,-1.80
2023-01-13T05:40:10.497Z,-2.07
2023-01-13T05:42:56.125Z,-1.23
2023-01-13T05:45:22.950Z,-1.46
2023-01-13T05:47:50.081Z,-1.54
2023-01-13T05:50:17.489Z,-1.19
2023-01-13T05:52:44.637Z,-1.02
2023-01-13T05:55:12.067Z,-1.27
2023-01-13T05:57:38.769Z,-1.07
2023-01-13T06:00:05.988Z,-2.00
2023-01-13T06:02:38.607Z,-1.09
2023-01-13T06:05:05.572Z,-1.01
2023-01-13T06:07:32.279Z,-1.31
2023-01-13T06:09:59.006Z,-2.17
2023-01-13T06:12:25.661Z,-1.18
2023-01-13T06:14:52.457Z,-0.96
2023-01-13T06:17:19.258Z,-2.08
2023-01-13T06:19:46.086Z,-1.49
2023-01-13T06:22:32.310Z,-1.16
2023-01-13T06:24:59.400Z,-1.30
2023-01-13T06:27:26.222Z,-1.14
2023-01-13T06:29:52.925Z,-1.32
2023-01-13T06:32:26.987Z,-1.07
2023-01-13T06:35:05.300Z,-1.33
2023-01-13T06:37:34.551Z,-1.35
2023-01-13T06:40:04.135Z,-1.16
2023-01-13T06:42:53.099Z,-1.31
2023-01-13T06:45:20.677Z,-0.97
2023-01-13T06:47:47.504Z,-1.28
2023-01-13T06:50:14.357Z,-1.49
2023-01-13T06:52:41.107Z,-1.17
2023-01-13T06:55:07.986Z,-1.02
2023-01-13T06:57:34.693Z,-1.01
2023-01-13T07:00:01.547Z,-0.99
2023-01-13T07:02:28.431Z,-1.00
2023-01-13T07:04:55.195Z,-1.21
2023-01-13T07:07:22.084Z,-1.09
2023-01-13T07:09:49.704Z,-1.02
2023-01-13T07:12:16.675Z,-1.19
2023-01-13T07:15:01.668Z,-1.10
2023-01-13T07:17:28.377Z,-2.17
2023-01-13T07:19:55.228Z,-1.24
2023-01-13T07:22:22.120Z,-1.13
2023-01-13T07:24:48.819Z,-1.10
2023-01-13T07:27:15.803Z,-1.11
2023-01-13T07:29:43.853Z,-1.05
2023-01-13T07:32:10.688Z,-1.16
2023-01-13T07:34:37.456Z,-0.89
2023-01-13T07:37:04.273Z,-1.52
2023-01-13T07:39:31.086Z,-0.89
2023-01-13T07:42:16.594Z,-0.89
2023-01-13T07:44:44.014Z,-0.88
2023-01-13T07:47:11.289Z,-0.86
2023-01-13T07:49:38.124Z,-1.45
2023-01-13T07:52:05.206Z,-1.13
2023-01-13T07:54:40.684Z,-0.87
2023-01-13T07:57:08.349Z,-0.76
2023-01-13T07:59:35.099Z,-1.20
2023-01-13T08:02:02.015Z,-1.04
2023-01-13T08:04:28.965Z,-1.67
2023-01-13T08:06:55.764Z,-1.35
2023-01-13T08:09:22.479Z,-0.70
2023-01-13T08:12:09.179Z,-0.76
2023-01-13T08:14:36.250Z,-0.88
2023-01-13T08:17:02.999Z,-1.08
2023-01-13T08:19:29.796Z,-1.31
2023-01-13T08:21:57.105Z,-0.96
2023-01-13T08:24:23.877Z,-1.28
2023-01-13T08:26:50.653Z,-0.93
2023-01-13T08:29:17.749Z,-0.69
2023-01-13T08:31:44.613Z,-0.78
2023-01-13T08:34:11.491Z,-0.78
2023-01-13T08:36:38.427Z,-0.89
2023-01-13T08:39:05.352Z,-0.68
2023-01-13T08:41:55.117Z,-0.85
2023-01-13T08:44:29.357Z,-1.39
2023-01-13T08:46:56.913Z,-0.91
2023-01-13T08:49:25.020Z,-0.41
2023-01-13T08:51:52.786Z,-0.45
2023-01-13T08:54:19.861Z,-0.70
2023-01-13T08:56:47.104Z,-0.43
2023-01-13T08:59:15.616Z,-0.40
2023-01-13T09:01:42.944Z,-0.20
2023-01-13T09:04:21.675Z,-0.50
2023-01-13T09:06:49.126Z,-0.47
2023-01-13T09:09:16.632Z,-0.50
2023-01-13T09:12:04.515Z,-0.48
2023-01-13T09:14:34.017Z,-0.22
2023-01-13T09:17:01.087Z,-0.48
2023-01-13T09:19:28.803Z,-0.29
2023-01-13T09:21:56.828Z,-0.14
2023-01-13T09:24:24.483Z,-0.17
2023-01-13T09:26:51.431Z,-0.34
2023-01-13T09:29:18.396Z,-0.21
2023-01-13T09:31:45.576Z,-0.27
2023-01-13T09:34:37.517Z,-0.21
2023-01-13T09:37:06.418Z,-0.94
2023-01-13T09:39:34.015Z,-0.20
2023-01-13T09:42:46.882Z,0.10
2023-01-13T09:45:23.764Z,0.12
2023-01-13T09:48:16.084Z,0.13
2023-01-13T09:51:18.645Z,0.08
2023-01-13T09:53:55.761Z,0.04
2023-01-13T09:56:26.513Z,0.09
2023-01-13T09:58:53.411Z,-0.03
2023-01-13T10:01:34.827Z,0.13
2023-01-13T10:04:11.225Z,-0.52
2023-01-13T10:06:42.412Z,-0.04
2023-01-13T10:09:17.213Z,0.20
2023-01-13T10:12:06.213Z,-0.53
2023-01-13T10:14:49.462Z,0.22
2023-01-13T10:17:39.113Z,0.25
2023-01-13T10:20:17.791Z,0.23
2023-01-13T10:23:02.743Z,0.15
2023-01-13T10:25:45.709Z,0.17
2023-01-13T10:28:17.706Z,-0.47
2023-01-13T10:30:47.831Z,0.23
2023-01-13T10:33:28.355Z,0.23
2023-01-13T10:35:55.146Z,0.34
2023-01-13T10:38:29.983Z,0.29
2023-01-13T10:41:05.553Z,-0.08
2023-01-13T10:43:32.705Z,0.15
2023-01-13T10:46:06.020Z,0.21
2023-01-13T10:48:57.083Z,-0.64
2023-01-13T10:51:39.112Z,0.33
2023-01-13T10:54:12.524Z,0.39
2023-01-13T10:56:47.447Z,-0.04
2023-01-13T10:59:22.127Z,0.39
2023-01-13T11:02:13.156Z,-0.37
2023-01-13T11:04:55.919Z,0.31
2023-01-13T11:07:34.673Z,-0.49
2023-01-13T11:10:27.430Z,0.49
2023-01-13T11:13:01.308Z,0.57
2023-01-13T11:15:43.490Z,0.55
2023-01-13T11:18:22.251Z,0.27
2023-01-13T11:20:51.312Z,0.47
2023-01-13T11:23:29.902Z,0.63
2023-01-13T11:26:14.632Z,0.46
2023-01-13T11:28:58.772Z,0.51
2023-01-13T11:31:25.494Z,0.55
2023-01-13T11:34:11.422Z,-0.13
2023-01-13T11:36:51.286Z,0.32
2023-01-13T11:39:27.206Z,0.53
2023-01-13T11:42:20.112Z,-0.32
2023-01-13T11:45:00.478Z,0.30
2023-01-13T11:47:27.977Z,0.46
2023-01-13T11:49:55.326Z,0.50
2023-01-13T11:52:45.665Z,0.19
2023-01-13T11:55:25.583Z,0.14
2023-01-13T11:58:01.380Z,0.48
2023-01-13T12:00:34.932Z,0.52
2023-01-13T12:03:07.367Z,0.55
2023-01-13T12:05:39.595Z,0.30
2023-01-13T12:08:06.370Z,0.53
2023-01-13T12:10:57.288Z,0.55
2023-01-13T12:13:43.335Z,0.23
2023-01-13T12:16:30.660Z,0.21
2023-01-13T12:19:21.920Z,0.53
2023-01-13T12:22:27.783Z,0.49
2023-01-13T12:25:16.972Z,-0.26
2023-01-13T12:27:53.579Z,0.18
2023-01-13T12:30:36.982Z,0.06
2023-01-13T12:33:30.585Z,0.16
2023-01-13T12:36:12.006Z,0.43
2023-01-13T12:38:59.500Z,0.42
2023-01-13T12:42:23.888Z,0.33
2023-01-13T12:45:12.237Z,0.38
2023-01-13T12:47:44.104Z,0.05
2023-01-13T12:50:23.680Z,0.37
2023-01-13T12:52:51.274Z,-0.06
2023-01-13T12:55:21.065Z,0.06
2023-01-13T12:57:58.231Z,0.46
2023-01-13T13:00:51.768Z,0.37
2023-01-13T13:03:27.520Z,0.39
2023-01-13T13:06:02.049Z,0.20
2023-01-13T13:08:39.827Z,0.27
2023-01-13T13:11:39.130Z,0.14
2023-01-13T13:14:15.306Z,0.26
2023-01-13T13:16:50.349Z,0.41
2023-01-13T13:19:20.135Z,0.35
2023-01-13T13:22:12.007Z,0.28
2023-01-13T13:24:40.279Z,0.20
2023-01-13T13:27:21.558Z,-0.13
2023-01-13T13:29:52.767Z,-0.52
2023-01-13T13:32:44.281Z,0.28
2023-01-13T13:35:42.592Z,-0.79
2023-01-13T13:38:49.418Z,0.23
2023-01-13T13:41:44.834Z,0.23
2023-01-13T13:44:50.104Z,0.09
2023-01-13T13:47:17.684Z,-0.12
2023-01-13T13:49:53.872Z,0.13
2023-01-13T13:52:21.008Z,0.24
2023-01-13T13:54:53.056Z,-0.04
2023-01-13T13:57:32.890Z,-0.28
2023-01-13T14:00:03.739Z,-0.04
2023-01-13T14:02:42.048Z,0.20
2023-01-13T14:05:14.812Z,0.28
2023-01-13T14:07:52.288Z,0.24
2023-01-13T14:10:28.656Z,-0.68
2023-01-13T14:12:58.586Z,0.21
2023-01-13T14:15:46.026Z,0.25
2023-01-13T14:18:17.956Z,0.29
2023-01-13T14:20:54.129Z,0.05
2023-01-13T14:23:25.990Z,0.17
2023-01-13T14:25:52.803Z,0.11
2023-01-13T14:28:32.389Z,0.27
2023-01-13T14:30:59.664Z,0.23
2023-01-13T14:33:46.022Z,-0.13
2023-01-13T14:36:36.732Z,0.17
2023-01-13T14:39:03.349Z,0.20
2023-01-13T14:41:35.560Z,0.19
2023-01-13T14:44:37.547Z,0.13
2023-01-13T14:47:23.808Z,0.17
2023-01-13T14:49:58.932Z,0.14
2023-01-13T14:52:28.205Z,-0.24
2023-01-13T14:54:57.903Z,0.07
2023-01-13T14:57:32.644Z,-0.25
2023-01-13T15:00:04.663Z,-0.03
2023-01-13T15:02:32.320Z,0.13
2023-01-13T15:05:19.810Z,0.12
2023-01-13T15:07:53.620Z,0.14
2023-01-13T15:10:25.159Z,-0.23
2023-01-13T15:12:54.395Z,-0.07
2023-01-13T15:15:28.765Z,-0.07
2023-01-13T15:17:55.808Z,-0.38
2023-01-13T15:20:24.551Z,-0.84
2023-01-13T15:22:52.419Z,0.09
2023-01-13T15:25:20.146Z,0.13
2023-01-13T15:27:50.891Z,0.18
2023-01-13T15:30:25.156Z,0.15
2023-01-13T15:32:55.003Z,-0.27
2023-01-13T15:35:23.680Z,-0.04
2023-01-13T15:37:51.195Z,-0.21
2023-01-13T15:40:45.478Z,0.13
2023-01-13T15:43:34.030Z,-0.05
2023-01-13T15:46:19.969Z,-0.07
2023-01-13T15:48:53.084Z,0.05
2023-01-13T15:51:21.503Z,0.13
2023-01-13T15:53:48.299Z,-0.32
2023-01-13T15:56:25.318Z,0.16
2023-01-13T15:58:52.761Z,-0.19
2023-01-13T16:01:19.704Z,-0.38
2023-01-13T16:03:46.479Z,-0.21
2023-01-13T16:06:24.476Z,0.07
2023-01-13T16:08:51.309Z,-0.50
2023-01-13T16:11:18.072Z,-0.11
2023-01-13T16:13:44.863Z,-0.22
2023-01-13T16:16:26.441Z,0.15
2023-01-13T16:18:54.511Z,-0.03
2023-01-13T16:21:24.627Z,0.11
2023-01-13T16:23:51.957Z,-0.08
2023-01-13T16:26:21.689Z,-0.11
2023-01-13T16:28:49.551Z,0.14
2023-01-13T16:31:19.417Z,0.05
2023-01-13T16:33:46.232Z,-0.08
2023-01-13T16:36:18.309Z,0.00
2023-01-13T16:38:45.143Z,0.06
2023-01-13T16:41:12.062Z,-0.08
2023-01-13T16:43:39.125Z,-0.72
2023-01-13T16:46:29.280Z,0.05
2023-01-13T16:49:01.654Z,-0.29
2023-01-13T16:51:28.604Z,-0.19
2023-01-13T16:53:55.620Z,-0.23
2023-01-13T16:56:26.957Z,0.06
2023-01-13T16:58:56.403Z,-0.21
2023-01-13T17:01:30.041Z,-0.26
2023-01-13T17:03:58.084Z,-0.24
2023-01-13T17:06:32.976Z,-0.92
2023-01-13T17:09:06.116Z,-0.04
2023-01-13T17:11:33.419Z,-0.16
2023-01-13T17:14:00.354Z,-0.10
2023-01-13T17:16:28.157Z,-0.28
2023-01-13T17:18:55.492Z,-0.44
2023-01-13T17:21:22.312Z,-0.29
2023-01-13T17:23:49.068Z,-0.08
2023-01-13T17:26:29.906Z,-0.64
2023-01-13T17:28:56.689Z,-0.38
2023-01-13T17:31:23.717Z,-0.31
2023-01-13T17:33:50.396Z,-0.23
2023-01-13T17:36:17.107Z,-0.67
2023-01-13T17:38:43.991Z,-0.28
2023-01-13T17:41:10.759Z,-0.36
2023-01-13T17:43:37.540Z,-0.94
2023-01-13T17:46:09.171Z,-0.51
2023-01-13T17:48:36.207Z,-0.43
2023-01-13T17:51:06.684Z,-0.32
2023-01-13T17:53:33.992Z,-0.40
2023-01-13T17:56:00.728Z,-0.27
2023-01-13T17:58:27.442Z,-0.47
2023-01-13T18:00:54.283Z,-0.23
2023-01-13T18:03:21.119Z,-0.39
2023-01-13T18:05:47.992Z,-0.54
2023-01-13T18:08:14.821Z,-0.09
2023-01-13T18:10:41.840Z,-0.40
2023-01-13T18:13:09.774Z,-0.48
2023-01-13T18:15:36.679Z,-0.17
2023-01-13T18:18:03.608Z,-0.52
2023-01-13T18:20:58.580Z,-0.03
2023-01-13T18:23:44.058Z,-0.11
2023-01-13T18:26:38.016Z,-0.55
2023-01-13T18:29:05.149Z,-0.37
2023-01-13T18:31:31.838Z,-1.19
2023-01-13T18:33:58.486Z,-0.27
2023-01-13T18:36:25.372Z,-0.62
2023-01-13T18:38:52.250Z,-0.74
2023-01-13T18:41:37.948Z,-0.46
2023-01-13T18:44:07.277Z,-0.86
2023-01-13T18:46:34.104Z,-0.28
2023-01-13T18:49:00.764Z,-0.31
2023-01-13T18:51:27.583Z,-0.40
2023-01-13T18:53:54.249Z,-0.49
2023-01-13T18:56:21.095Z,-0.19
2023-01-13T18:58:52.075Z,-0.27
2023-01-13T19:01:27.492Z,-0.20
2023-01-13T19:04:05.148Z,-0.57
2023-01-13T19:06:33.770Z,-0.16
2023-01-13T19:09:08.261Z,-0.22
2023-01-13T19:11:38.741Z,-0.42
2023-01-13T19:14:05.559Z,-0.55
2023-01-13T19:16:32.303Z,-0.45
2023-01-13T19:18:59.965Z,-0.34
2023-01-13T19:21:26.723Z,-0.70
2023-01-13T19:23:55.666Z,-0.36
2023-01-13T19:26:22.950Z,-0.89
2023-01-13T19:28:50.502Z,-0.54
2023-01-13T19:31:20.325Z,-0.50
2023-01-13T19:33:47.222Z,-0.74
2023-01-13T19:36:14.112Z,-0.76
2023-01-13T19:38:40.835Z,-0.86
2023-01-13T19:41:27.758Z,-0.54
2023-01-13T19:44:14.895Z,-0.49
2023-01-13T19:46:41.666Z,-0.41
2023-01-13T19:49:08.406Z,-0.43
2023-01-13T19:51:35.100Z,-0.72
2023-01-13T19:54:01.856Z,-0.72
2023-01-13T19:56:29.474Z,-1.06
2023-01-13T19:58:56.796Z,-1.08
2023-01-13T20:01:31.641Z,-0.40
2023-01-13T20:04:03.255Z,-1.53
2023-01-13T20:06:31.651Z,-0.38
2023-01-13T20:08:59.393Z,-0.74
2023-01-13T20:11:31.399Z,-0.73
2023-01-13T20:13:59.800Z,-0.58
2023-01-13T20:16:30.254Z,-0.54
2023-01-13T20:18:56.911Z,-0.58
2023-01-13T20:21:23.765Z,-0.54
2023-01-13T20:23:52.534Z,-1.33
2023-01-13T20:26:20.556Z,-0.78
2023-01-13T20:28:47.712Z,-0.66
2023-01-13T20:31:15.669Z,-0.42
2023-01-13T20:33:42.670Z,-1.29
2023-01-13T20:36:27.790Z,-0.40
2023-01-13T20:39:00.587Z,-0.61
2023-01-13T20:41:46.679Z,-0.57
2023-01-13T20:44:15.177Z,-0.41
2023-01-13T20:46:43.502Z,-1.17
2023-01-13T20:49:11.632Z,-1.03
2023-01-13T20:51:38.407Z,-0.60
2023-01-13T20:54:05.408Z,-0.43
2023-01-13T20:56:32.372Z,-1.19
2023-01-13T20:58:59.064Z,-0.68
2023-01-13T21:01:26.620Z,-0.42
2023-01-13T21:03:57.141Z,-0.87
2023-01-13T21:06:23.994Z,-0.47
2023-01-13T21:08:53.200Z,-0.64
2023-01-13T21:11:42.126Z,-0.65
2023-01-13T21:14:42.528Z,-0.77
2023-01-13T21:17:28.900Z,-1.33
2023-01-13T21:19:56.544Z,-1.19
2023-01-13T21:22:23.611Z,-0.82
2023-01-13T21:24:50.353Z,-0.64
2023-01-13T21:27:17.700Z,-0.64
2023-01-13T21:29:44.623Z,-0.61
2023-01-13T21:32:11.708Z,-0.71
2023-01-13T21:34:38.601Z,-0.46
2023-01-13T21:37:05.311Z,-0.68
2023-01-13T21:39:32.155Z,-1.32
2023-01-13T21:42:17.891Z,-1.06
2023-01-13T21:45:03.139Z,-0.87
2023-01-13T21:47:48.290Z,-0.47
2023-01-13T21:50:18.149Z,-0.45
2023-01-13T21:52:45.763Z,-0.49
2023-01-13T21:55:25.249Z,-0.81
2023-01-13T21:58:01.113Z,-1.03
2023-01-13T22:00:30.125Z,-0.55
2023-01-13T22:02:58.492Z,-0.84
2023-01-13T22:05:25.936Z,-0.82
2023-01-13T22:07:53.018Z,-1.53
2023-01-13T22:10:22.268Z,-0.68
2023-01-13T22:12:52.888Z,-0.60
2023-01-13T22:15:20.499Z,-0.51
2023-01-13T22:17:52.729Z,-0.70
2023-01-13T22:20:20.168Z,-1.07
2023-01-13T22:22:47.794Z,-0.52
2023-01-13T22:25:16.628Z,-0.50
2023-01-13T22:27:44.756Z,-0.80
2023-01-13T22:30:21.907Z,-0.54
2023-01-13T22:32:49.928Z,-0.81
2023-01-13T22:35:16.753Z,-1.17
2023-01-13T22:37:43.581Z,-0.59
2023-01-13T22:40:12.026Z,-0.57
2023-01-13T22:42:43.042Z,-0.59
2023-01-13T22:45:12.362Z,-0.75
2023-01-13T22:47:39.207Z,-0.64
2023-01-13T22:50:07.516Z,-0.96
2023-01-13T22:52:35.304Z,-0.66
2023-01-13T22:55:02.288Z,-0.90
2023-01-13T22:57:36.314Z,-0.55
2023-01-13T23:00:10.582Z,-0.99
2023-01-13T23:02:38.287Z,-0.67
2023-01-13T23:05:05.413Z,-0.89
2023-01-13T23:07:32.266Z,-0.73
2023-01-13T23:09:58.968Z,-0.56
2023-01-13T23:12:25.673Z,-0.49
2023-01-13T23:14:56.093Z,-0.56
2023-01-13T23:17:23.444Z,-0.88
2023-01-13T23:19:50.196Z,-0.41
2023-01-13T23:22:16.942Z,-0.44
2023-01-13T23:24:43.636Z,-1.30
2023-01-13T23:27:10.519Z,-0.92
2023-01-13T23:29:37.409Z,-0.30
2023-01-13T23:32:04.437Z,-0.95
2023-01-13T23:34:31.178Z,-0.76
2023-01-13T23:36:58.056Z,-0.52
2023-01-13T23:39:25.012Z,-0.41
2023-01-13T23:41:51.708Z,-0.94
2023-01-13T23:44:18.455Z,-0.24
2023-01-13T23:46:45.170Z,-0.27
2023-01-13T23:49:11.917Z,-0.89
2023-01-13T23:51:38.853Z,-0.97
2023-01-13T23:54:05.507Z,-0.93
2023-01-13T23:56:32.976Z,-0.48
2023-01-13T23:58:59.833Z,-0.63
